LFBG/CNG METAR and TAF weather

Enter ICAO airport designator
Station Type Date Time Source
LFBG METAR 2024/04/17 19:00 UTC NOAA

LFBG 171900Z AUTO 29010KT CAVOK 12/07 Q1018


Station Type Date Time Source
LFBG Decoded METAR 2024/04/17 19:00 UTC NOAA

Cognac, France (LFBG) 45-40N 000-19W 31M
Apr 17, 2024 - 03:00 PM EDT / 2024.04.17 1900 UTC
Wind: from the WNW (290 degrees) at 12 MPH (10 KT):0
Visibility: greater than 7 mile(s):0
Temperature: 53 F (12 C)
Dew Point: 44 F (7 C)
Relative Humidity: 71%
Pressure (altimeter): 30.06 in. Hg (1018 hPa)
ob: LFBG 171900Z AUTO 29010KT CAVOK 12/07 Q1018
cycle: 19

Station Type Date Time Source
LFBG TAF 2024/04/17 16:21 UTC NOAA